sensor_id;sensor_type;location;lat;lon;timestamp;temperature;humidity
8593;DHT22;4334;49.982;8.398;2023-07-24T00:00:14;20.40;99.90
8593;DHT22;4334;49.982;8.398;2023-07-24T00:02:41;20.40;99.90
8593;DHT22;4334;49.982;8.398;2023-07-24T00:05:08;20.40;99.90
8593;DHT22;4334;49.982;8.398;2023-07-24T00:07:37;20.30;99.90
8593;DHT22;4334;49.982;8.398;2023-07-24T00:10:04;20.30;99.90
8593;DHT22;4334;49.982;8.398;2023-07-24T00:12:31;20.20;99.90
8593;DHT22;4334;49.982;8.398;2023-07-24T00:14:58;20.20;99.90
8593;DHT22;4334;49.982;8.398;2023-07-24T00:17:25;20.20;99.90
8593;DHT22;4334;49.982;8.398;2023-07-24T00:19:55;20.20;99.90
8593;DHT22;4334;49.982;8.398;2023-07-24T00:22:22;20.30;99.90
8593;DHT22;4334;49.982;8.398;2023-07-24T00:24:50;20.30;99.90
8593;DHT22;4334;49.982;8.398;2023-07-24T00:27:17;20.30;99.90
8593;DHT22;4334;49.982;8.398;2023-07-24T00:29:44;20.30;99.90
8593;DHT22;4334;49.982;8.398;2023-07-24T00:32:11;20.30;99.90
8593;DHT22;4334;49.982;8.398;2023-07-24T00:34:37;20.30;99.90
8593;DHT22;4334;49.982;8.398;2023-07-24T00:37:05;20.30;99.90
8593;DHT22;4334;49.982;8.398;2023-07-24T00:39:31;20.30;99.90
8593;DHT22;4334;49.982;8.398;2023-07-24T00:41:59;20.40;99.90
8593;DHT22;4334;49.982;8.398;2023-07-24T00:44:26;20.40;99.90
8593;DHT22;4334;49.982;8.398;2023-07-24T00:46:53;20.50;99.90
8593;DHT22;4334;49.982;8.398;2023-07-24T00:49:20;20.60;99.90
8593;DHT22;4334;49.982;8.398;2023-07-24T00:51:47;20.70;99.90
8593;DHT22;4334;49.982;8.398;2023-07-24T00:54:16;20.70;99.90
8593;DHT22;4334;49.982;8.398;2023-07-24T00:56:44;20.70;99.90
8593;DHT22;4334;49.982;8.398;2023-07-24T00:59:12;20.70;99.90
8593;DHT22;4334;49.982;8.398;2023-07-24T01:01:40;20.70;99.90
8593;DHT22;4334;49.982;8.398;2023-07-24T01:04:08;20.60;99.90
8593;DHT22;4334;49.982;8.398;2023-07-24T01:06:35;20.60;99.90
8593;DHT22;4334;49.982;8.398;2023-07-24T01:09:02;21.00;99.90
8593;DHT22;4334;49.982;8.398;2023-07-24T01:11:33;20.60;99.90
8593;DHT22;4334;49.982;8.398;2023-07-24T01:14:08;20.50;99.90
8593;DHT22;4334;49.982;8.398;2023-07-24T01:16:41;20.50;99.90
8593;DHT22;4334;49.982;8.398;2023-07-24T01:19:16;20.40;99.90
8593;DHT22;4334;49.982;8.398;2023-07-24T01:21:57;20.40;99.90
8593;DHT22;4334;49.982;8.398;2023-07-24T01:24:30;20.40;99.90
8593;DHT22;4334;49.982;8.398;2023-07-24T01:27:01;20.40;99.90
8593;DHT22;4334;49.982;8.398;2023-07-24T01:29:28;20.40;99.90
8593;DHT22;4334;49.982;8.398;2023-07-24T01:31:55;20.40;99.90
8593;DHT22;4334;49.982;8.398;2023-07-24T01:34:22;20.30;99.90
8593;DHT22;4334;49.982;8.398;2023-07-24T01:36:50;20.30;99.90
8593;DHT22;4334;49.982;8.398;2023-07-24T01:39:18;20.40;99.90
8593;DHT22;4334;49.982;8.398;2023-07-24T01:41:46;20.40;99.90
8593;DHT22;4334;49.982;8.398;2023-07-24T01:44:14;20.40;99.90
8593;DHT22;4334;49.982;8.398;2023-07-24T01:46:41;20.40;99.90
8593;DHT22;4334;49.982;8.398;2023-07-24T01:49:08;20.40;99.90
8593;DHT22;4334;49.982;8.398;2023-07-24T01:51:35;20.40;99.90
8593;DHT22;4334;49.982;8.398;2023-07-24T01:54:02;20.40;99.90
8593;DHT22;4334;49.982;8.398;2023-07-24T01:56:28;20.40;99.90
8593;DHT22;4334;49.982;8.398;2023-07-24T01:58:55;20.40;99.90
8593;DHT22;4334;49.982;8.398;2023-07-24T02:01:23;20.30;99.90
8593;DHT22;4334;49.982;8.398;2023-07-24T02:03:50;20.30;99.90
8593;DHT22;4334;49.982;8.398;2023-07-24T02:06:16;20.30;99.90
8593;DHT22;4334;49.982;8.398;2023-07-24T02:08:44;20.30;99.90
8593;DHT22;4334;49.982;8.398;2023-07-24T02:11:14;20.20;99.90
8593;DHT22;4334;49.982;8.398;2023-07-24T02:13:43;20.10;99.90
8593;DHT22;4334;49.982;8.398;2023-07-24T02:16:09;20.10;99.90
8593;DHT22;4334;49.982;8.398;2023-07-24T02:18:38;20.10;99.90
8593;DHT22;4334;49.982;8.398;2023-07-24T02:21:04;20.20;99.90
8593;DHT22;4334;49.982;8.398;2023-07-24T02:23:31;20.00;99.90
8593;DHT22;4334;49.982;8.398;2023-07-24T02:25:58;19.90;99.90
8593;DHT22;4334;49.982;8.398;2023-07-24T02:28:25;19.80;99.90
8593;DHT22;4334;49.982;8.398;2023-07-24T02:30:51;19.70;99.90
8593;DHT22;4334;49.982;8.398;2023-07-24T02:33:21;19.60;99.90
8593;DHT22;4334;49.982;8.398;2023-07-24T02:35:51;19.50;99.90
8593;DHT22;4334;49.982;8.398;2023-07-24T02:38:18;19.40;99.90
8593;DHT22;4334;49.982;8.398;2023-07-24T02:40:45;19.30;99.90
8593;DHT22;4334;49.982;8.398;2023-07-24T02:43:12;19.20;99.90
8593;DHT22;4334;49.982;8.398;2023-07-24T02:45:39;19.20;99.90
8593;DHT22;4334;49.982;8.398;2023-07-24T02:48:06;19.10;99.90
8593;DHT22;4334;49.982;8.398;2023-07-24T02:50:33;19.00;99.90
8593;DHT22;4334;49.982;8.398;2023-07-24T02:53:01;18.90;99.90
8593;DHT22;4334;49.982;8.398;2023-07-24T02:55:28;18.70;99.90
8593;DHT22;4334;49.982;8.398;2023-07-24T02:57:55;19.10;99.90
8593;DHT22;4334;49.982;8.398;2023-07-24T03:00:21;18.60;99.90
8593;DHT22;4334;49.982;8.398;2023-07-24T03:02:48;18.60;99.90
8593;DHT22;4334;49.982;8.398;2023-07-24T03:05:15;18.70;99.90
8593;DHT22;4334;49.982;8.398;2023-07-24T03:07:42;18.80;99.90
8593;DHT22;4334;49.982;8.398;2023-07-24T03:10:10;18.80;99.90
8593;DHT22;4334;49.982;8.398;2023-07-24T03:12:37;19.80;99.90
8593;DHT22;4334;49.982;8.398;2023-07-24T03:15:04;18.90;99.90
8593;DHT22;4334;49.982;8.398;2023-07-24T03:17:32;18.90;99.90
8593;DHT22;4334;49.982;8.398;2023-07-24T03:19:59;18.70;99.90
8593;DHT22;4334;49.982;8.398;2023-07-24T03:22:25;18.70;99.90
8593;DHT22;4334;49.982;8.398;2023-07-24T03:24:52;18.60;99.90
8593;DHT22;4334;49.982;8.398;2023-07-24T03:27:20;18.60;99.90
8593;DHT22;4334;49.982;8.398;2023-07-24T03:29:47;18.60;99.90
8593;DHT22;4334;49.982;8.398;2023-07-24T03:32:14;18.60;99.90
8593;DHT22;4334;49.982;8.398;2023-07-24T03:34:40;18.60;99.90
8593;DHT22;4334;49.982;8.398;2023-07-24T03:37:07;18.50;99.90
8593;DHT22;4334;49.982;8.398;2023-07-24T03:39:34;18.40;99.90
8593;DHT22;4334;49.982;8.398;2023-07-24T03:42:02;18.40;99.90
8593;DHT22;4334;49.982;8.398;2023-07-24T03:44:30;18.40;99.90
8593;DHT22;4334;49.982;8.398;2023-07-24T03:46:57;18.40;99.90
8593;DHT22;4334;49.982;8.398;2023-07-24T03:49:23;18.50;99.90
8593;DHT22;4334;49.982;8.398;2023-07-24T03:51:50;18.50;99.90
8593;DHT22;4334;49.982;8.398;2023-07-24T03:54:17;18.50;99.90
8593;DHT22;4334;49.982;8.398;2023-07-24T03:56:43;18.50;99.90
8593;DHT22;4334;49.982;8.398;2023-07-24T03:59:10;18.60;99.90
8593;DHT22;4334;49.982;8.398;2023-07-24T04:01:39;18.60;99.90
8593;DHT22;4334;49.982;8.398;2023-07-24T04:04:05;18.70;99.90
8593;DHT22;4334;49.982;8.398;2023-07-24T04:06:32;18.70;99.90
8593;DHT22;4334;49.982;8.398;2023-07-24T04:08:59;18.70;99.90
8593;DHT22;4334;49.982;8.398;2023-07-24T04:11:25;18.70;99.90
8593;DHT22;4334;49.982;8.398;2023-07-24T04:13:52;18.70;99.90
8593;DHT22;4334;49.982;8.398;2023-07-24T04:16:19;18.70;99.90
8593;DHT22;4334;49.982;8.398;2023-07-24T04:18:47;18.70;99.90
8593;DHT22;4334;49.982;8.398;2023-07-24T04:21:14;18.90;99.90
8593;DHT22;4334;49.982;8.398;2023-07-24T04:23:41;18.80;99.90
8593;DHT22;4334;49.982;8.398;2023-07-24T04:26:07;19.00;99.90
8593;DHT22;4334;49.982;8.398;2023-07-24T04:28:34;19.00;99.90
8593;DHT22;4334;49.982;8.398;2023-07-24T04:31:01;19.00;99.90
8593;DHT22;4334;49.982;8.398;2023-07-24T04:33:27;19.10;99.90
8593;DHT22;4334;49.982;8.398;2023-07-24T04:35:55;19.10;99.90
8593;DHT22;4334;49.982;8.398;2023-07-24T04:38:22;19.10;99.90
8593;DHT22;4334;49.982;8.398;2023-07-24T04:40:49;19.20;99.90
8593;DHT22;4334;49.982;8.398;2023-07-24T04:43:16;19.20;99.90
8593;DHT22;4334;49.982;8.398;2023-07-24T04:45:43;19.10;99.90
8593;DHT22;4334;49.982;8.398;2023-07-24T04:48:09;19.20;99.90
8593;DHT22;4334;49.982;8.398;2023-07-24T04:50:36;19.30;99.90
8593;DHT22;4334;49.982;8.398;2023-07-24T04:53:04;19.30;99.90
8593;DHT22;4334;49.982;8.398;2023-07-24T04:55:31;19.20;99.90
8593;DHT22;4334;49.982;8.398;2023-07-24T04:57:57;19.30;99.90
8593;DHT22;4334;49.982;8.398;2023-07-24T05:00:24;19.30;99.90
8593;DHT22;4334;49.982;8.398;2023-07-24T05:02:52;19.30;99.90
8593;DHT22;4334;49.982;8.398;2023-07-24T05:05:18;19.30;99.90
8593;DHT22;4334;49.982;8.398;2023-07-24T05:07:45;19.30;99.90
8593;DHT22;4334;49.982;8.398;2023-07-24T05:10:14;19.30;99.90
8593;DHT22;4334;49.982;8.398;2023-07-24T05:12:41;19.30;99.90
8593;DHT22;4334;49.982;8.398;2023-07-24T05:15:09;19.20;99.90
8593;DHT22;4334;49.982;8.398;2023-07-24T05:17:36;19.20;99.90
8593;DHT22;4334;49.982;8.398;2023-07-24T05:20:03;19.20;99.90
8593;DHT22;4334;49.982;8.398;2023-07-24T05:22:31;19.20;99.90
8593;DHT22;4334;49.982;8.398;2023-07-24T05:24:57;19.20;99.90
8593;DHT22;4334;49.982;8.398;2023-07-24T05:27:25;19.40;99.90
8593;DHT22;4334;49.982;8.398;2023-07-24T05:29:52;19.50;99.90
8593;DHT22;4334;49.982;8.398;2023-07-24T05:32:19;19.70;99.90
8593;DHT22;4334;49.982;8.398;2023-07-24T05:34:45;19.60;99.90
8593;DHT22;4334;49.982;8.398;2023-07-24T05:37:12;19.80;99.90
8593;DHT22;4334;49.982;8.398;2023-07-24T05:39:39;21.10;99.90
8593;DHT22;4334;49.982;8.398;2023-07-24T05:42:06;20.00;99.90
8593;DHT22;4334;49.982;8.398;2023-07-24T05:44:34;20.00;99.90
8593;DHT22;4334;49.982;8.398;2023-07-24T05:47:03;20.00;99.90
8593;DHT22;4334;49.982;8.398;2023-07-24T05:49:30;20.20;99.90
8593;DHT22;4334;49.982;8.398;2023-07-24T05:51:56;20.20;99.90
8593;DHT22;4334;49.982;8.398;2023-07-24T05:54:23;20.30;99.90
8593;DHT22;4334;49.982;8.398;2023-07-24T05:56:52;20.40;99.90
8593;DHT22;4334;49.982;8.398;2023-07-24T05:59:18;20.50;99.90
8593;DHT22;4334;49.982;8.398;2023-07-24T06:01:46;20.50;99.90
8593;DHT22;4334;49.982;8.398;2023-07-24T06:04:13;20.60;99.90
8593;DHT22;4334;49.982;8.398;2023-07-24T06:06:40;20.50;99.90
8593;DHT22;4334;49.982;8.398;2023-07-24T06:09:07;20.60;99.90
8593;DHT22;4334;49.982;8.398;2023-07-24T06:11:33;21.00;99.90
8593;DHT22;4334;49.982;8.398;2023-07-24T06:14:00;20.70;99.90
8593;DHT22;4334;49.982;8.398;2023-07-24T06:16:27;20.80;99.90
8593;DHT22;4334;49.982;8.398;2023-07-24T06:18:55;21.00;99.90
8593;DHT22;4334;49.982;8.398;2023-07-24T06:21:21;21.30;99.90
8593;DHT22;4334;49.982;8.398;2023-07-24T06:23:48;21.50;99.90
8593;DHT22;4334;49.982;8.398;2023-07-24T06:26:15;21.60;99.90
8593;DHT22;4334;49.982;8.398;2023-07-24T06:28:43;21.80;99.90
8593;DHT22;4334;49.982;8.398;2023-07-24T06:31:09;22.10;99.90
8593;DHT22;4334;49.982;8.398;2023-07-24T06:33:36;22.40;99.90
8593;DHT22;4334;49.982;8.398;2023-07-24T06:36:08;22.80;99.90
8593;DHT22;4334;49.982;8.398;2023-07-24T06:38:35;23.10;99.90
8593;DHT22;4334;49.982;8.398;2023-07-24T06:41:02;23.40;99.90
8593;DHT22;4334;49.982;8.398;2023-07-24T06:43:29;23.40;99.90
8593;DHT22;4334;49.982;8.398;2023-07-24T06:45:56;23.30;99.90
8593;DHT22;4334;49.982;8.398;2023-07-24T06:48:22;23.40;99.90
8593;DHT22;4334;49.982;8.398;2023-07-24T06:50:49;23.10;99.90
8593;DHT22;4334;49.982;8.398;2023-07-24T06:53:17;23.50;99.90
8593;DHT22;4334;49.982;8.398;2023-07-24T06:55:44;23.80;99.90
8593;DHT22;4334;49.982;8.398;2023-07-24T06:58:11;24.00;99.90
8593;DHT22;4334;49.982;8.398;2023-07-24T07:00:37;23.60;99.90
8593;DHT22;4334;49.982;8.398;2023-07-24T07:03:04;23.50;99.90
8593;DHT22;4334;49.982;8.398;2023-07-24T07:05:31;23.40;99.90
8593;DHT22;4334;49.982;8.398;2023-07-24T07:07:58;23.50;99.90
8593;DHT22;4334;49.982;8.398;2023-07-24T07:10:26;24.10;99.90
8593;DHT22;4334;49.982;8.398;2023-07-24T07:12:53;24.60;99.90
8593;DHT22;4334;49.982;8.398;2023-07-24T07:15:20;24.50;99.90
8593;DHT22;4334;49.982;8.398;2023-07-24T07:17:47;24.60;99.90
8593;DHT22;4334;49.982;8.398;2023-07-24T07:20:14;24.50;99.90
8593;DHT22;4334;49.982;8.398;2023-07-24T07:22:41;24.40;99.90
8593;DHT22;4334;49.982;8.398;2023-07-24T07:25:08;24.30;99.90
8593;DHT22;4334;49.982;8.398;2023-07-24T07:27:36;24.60;99.90
8593;DHT22;4334;49.982;8.398;2023-07-24T07:30:03;24.70;99.90
8593;DHT22;4334;49.982;8.398;2023-07-24T07:32:30;24.40;99.90
8593;DHT22;4334;49.982;8.398;2023-07-24T07:34:57;24.40;99.90
8593;DHT22;4334;49.982;8.398;2023-07-24T07:37:24;24.50;99.90
8593;DHT22;4334;49.982;8.398;2023-07-24T07:39:50;24.60;99.90
8593;DHT22;4334;49.982;8.398;2023-07-24T07:42:17;24.40;99.90
8593;DHT22;4334;49.982;8.398;2023-07-24T07:44:45;24.40;99.90
8593;DHT22;4334;49.982;8.398;2023-07-24T07:47:12;24.60;99.90
8593;DHT22;4334;49.982;8.398;2023-07-24T07:49:39;24.80;99.90
8593;DHT22;4334;49.982;8.398;2023-07-24T07:52:07;24.80;99.90
8593;DHT22;4334;49.982;8.398;2023-07-24T07:54:34;24.60;99.90
8593;DHT22;4334;49.982;8.398;2023-07-24T07:57:00;24.80;99.90
8593;DHT22;4334;49.982;8.398;2023-07-24T07:59:27;24.80;99.90
8593;DHT22;4334;49.982;8.398;2023-07-24T08:01:55;24.60;99.90
8593;DHT22;4334;49.982;8.398;2023-07-24T08:04:22;24.50;99.90
8593;DHT22;4334;49.982;8.398;2023-07-24T08:06:48;24.50;99.90
8593;DHT22;4334;49.982;8.398;2023-07-24T08:09:15;24.40;99.90
8593;DHT22;4334;49.982;8.398;2023-07-24T08:11:43;24.40;99.90
8593;DHT22;4334;49.982;8.398;2023-07-24T08:14:09;24.40;99.90
8593;DHT22;4334;49.982;8.398;2023-07-24T08:16:36;24.70;99.90
8593;DHT22;4334;49.982;8.398;2023-07-24T08:19:04;25.00;99.90
8593;DHT22;4334;49.982;8.398;2023-07-24T08:21:31;25.40;99.90
8593;DHT22;4334;49.982;8.398;2023-07-24T08:23:57;25.70;99.90
8593;DHT22;4334;49.982;8.398;2023-07-24T08:26:25;25.70;99.90
8593;DHT22;4334;49.982;8.398;2023-07-24T08:28:52;25.50;99.90
8593;DHT22;4334;49.982;8.398;2023-07-24T08:31:19;25.50;99.90
8593;DHT22;4334;49.982;8.398;2023-07-24T08:33:46;25.50;99.90
8593;DHT22;4334;49.982;8.398;2023-07-24T08:36:14;25.50;99.90
8593;DHT22;4334;49.982;8.398;2023-07-24T08:38:41;25.70;99.90
8593;DHT22;4334;49.982;8.398;2023-07-24T08:41:09;25.70;99.90
8593;DHT22;4334;49.982;8.398;2023-07-24T08:43:37;25.80;99.90
8593;DHT22;4334;49.982;8.398;2023-07-24T08:46:05;26.10;99.90
8593;DHT22;4334;49.982;8.398;2023-07-24T08:48:34;26.40;99.90
8593;DHT22;4334;49.982;8.398;2023-07-24T08:51:03;26.80;99.90
8593;DHT22;4334;49.982;8.398;2023-07-24T08:53:32;26.70;99.90
8593;DHT22;4334;49.982;8.398;2023-07-24T08:56:00;27.10;99.90
8593;DHT22;4334;49.982;8.398;2023-07-24T08:58:27;27.20;99.90
8593;DHT22;4334;49.982;8.398;2023-07-24T09:00:54;27.50;99.90
8593;DHT22;4334;49.982;8.398;2023-07-24T09:03:21;27.50;99.90
8593;DHT22;4334;49.982;8.398;2023-07-24T09:05:48;27.80;99.90
8593;DHT22;4334;49.982;8.398;2023-07-24T09:08:28;27.90;99.90
8593;DHT22;4334;49.982;8.398;2023-07-24T09:10:56;27.70;99.90
8593;DHT22;4334;49.982;8.398;2023-07-24T09:13:23;27.60;99.90
8593;DHT22;4334;49.982;8.398;2023-07-24T09:15:50;27.20;99.90
8593;DHT22;4334;49.982;8.398;2023-07-24T09:18:17;27.30;99.90
8593;DHT22;4334;49.982;8.398;2023-07-24T09:20:44;27.20;99.90
8593;DHT22;4334;49.982;8.398;2023-07-24T09:23:12;26.90;99.90
8593;DHT22;4334;49.982;8.398;2023-07-24T09:25:41;26.60;99.90
8593;DHT22;4334;49.982;8.398;2023-07-24T09:28:13;26.10;99.90
8593;DHT22;4334;49.982;8.398;2023-07-24T09:30:41;25.60;99.90
8593;DHT22;4334;49.982;8.398;2023-07-24T09:33:09;25.30;99.90
8593;DHT22;4334;49.982;8.398;2023-07-24T09:35:36;25.00;99.90
8593;DHT22;4334;49.982;8.398;2023-07-24T09:38:04;25.30;99.90
8593;DHT22;4334;49.982;8.398;2023-07-24T09:40:38;26.10;99.90
8593;DHT22;4334;49.982;8.398;2023-07-24T09:43:17;27.30;99.90
8593;DHT22;4334;49.982;8.398;2023-07-24T09:45:44;28.30;99.90
8593;DHT22;4334;49.982;8.398;2023-07-24T09:48:13;28.90;99.90
8593;DHT22;4334;49.982;8.398;2023-07-24T09:50:41;28.40;99.90
8593;DHT22;4334;49.982;8.398;2023-07-24T09:53:12;28.00;99.90
8593;DHT22;4334;49.982;8.398;2023-07-24T09:55:43;27.40;99.90
8593;DHT22;4334;49.982;8.398;2023-07-24T09:58:15;27.00;99.90
8593;DHT22;4334;49.982;8.398;2023-07-24T10:00:43;26.90;99.90
8593;DHT22;4334;49.982;8.398;2023-07-24T10:03:11;26.60;99.90
8593;DHT22;4334;49.982;8.398;2023-07-24T10:05:38;26.70;99.90
8593;DHT22;4334;49.982;8.398;2023-07-24T10:08:05;26.80;99.90
8593;DHT22;4334;49.982;8.398;2023-07-24T10:10:33;26.60;99.90
8593;DHT22;4334;49.982;8.398;2023-07-24T10:13:00;26.30;99.50
8593;DHT22;4334;49.982;8.398;2023-07-24T10:15:29;25.80;99.90
8593;DHT22;4334;49.982;8.398;2023-07-24T10:18:02;25.80;99.90
8593;DHT22;4334;49.982;8.398;2023-07-24T10:20:39;25.80;99.90
8593;DHT22;4334;49.982;8.398;2023-07-24T10:23:08;26.10;99.90
8593;DHT22;4334;49.982;8.398;2023-07-24T10:25:36;26.70;99.90
8593;DHT22;4334;49.982;8.398;2023-07-24T10:28:07;27.00;99.70
8593;DHT22;4334;49.982;8.398;2023-07-24T10:30:38;26.90;99.90
8593;DHT22;4334;49.982;8.398;2023-07-24T10:33:10;26.50;99.90
8593;DHT22;4334;49.982;8.398;2023-07-24T10:35:39;26.50;99.90
8593;DHT22;4334;49.982;8.398;2023-07-24T10:38:06;26.60;99.90
8593;DHT22;4334;49.982;8.398;2023-07-24T10:40:33;26.60;99.90
8593;DHT22;4334;49.982;8.398;2023-07-24T10:43:03;26.90;99.90
8593;DHT22;4334;49.982;8.398;2023-07-24T10:45:45;27.10;99.90
8593;DHT22;4334;49.982;8.398;2023-07-24T10:48:13;27.30;99.90
8593;DHT22;4334;49.982;8.398;2023-07-24T10:50:41;27.30;99.90
8593;DHT22;4334;49.982;8.398;2023-07-24T10:53:08;27.30;99.90
8593;DHT22;4334;49.982;8.398;2023-07-24T10:55:35;27.40;99.90
8593;DHT22;4334;49.982;8.398;2023-07-24T10:58:02;27.40;99.90
8593;DHT22;4334;49.982;8.398;2023-07-24T11:00:29;27.20;99.90
8593;DHT22;4334;49.982;8.398;2023-07-24T11:02:59;26.80;99.90
8593;DHT22;4334;49.982;8.398;2023-07-24T11:05:29;26.30;99.90
8593;DHT22;4334;49.982;8.398;2023-07-24T11:07:57;26.20;99.90
8593;DHT22;4334;49.982;8.398;2023-07-24T11:10:24;26.00;99.90
8593;DHT22;4334;49.982;8.398;2023-07-24T11:12:51;26.10;99.90
8593;DHT22;4334;49.982;8.398;2023-07-24T11:15:24;26.60;99.90
8593;DHT22;4334;49.982;8.398;2023-07-24T11:17:53;27.00;99.90
8593;DHT22;4334;49.982;8.398;2023-07-24T11:20:21;27.10;99.60
8593;DHT22;4334;49.982;8.398;2023-07-24T11:22:47;27.00;98.90
8593;DHT22;4334;49.982;8.398;2023-07-24T11:25:14;27.00;98.70
8593;DHT22;4334;49.982;8.398;2023-07-24T11:27:42;26.80;98.20
8593;DHT22;4334;49.982;8.398;2023-07-24T11:30:10;26.90;98.40
8593;DHT22;4334;49.982;8.398;2023-07-24T11:32:38;27.00;98.50
8593;DHT22;4334;49.982;8.398;2023-07-24T11:35:07;26.90;98.90
8593;DHT22;4334;49.982;8.398;2023-07-24T11:37:36;26.70;99.20
8593;DHT22;4334;49.982;8.398;2023-07-24T11:40:04;26.80;99.40
8593;DHT22;4334;49.982;8.398;2023-07-24T11:42:37;26.60;99.50
8593;DHT22;4334;49.982;8.398;2023-07-24T11:45:05;26.60;99.90
8593;DHT22;4334;49.982;8.398;2023-07-24T11:47:41;26.70;99.70
8593;DHT22;4334;49.982;8.398;2023-07-24T11:50:08;26.70;99.70
8593;DHT22;4334;49.982;8.398;2023-07-24T11:52:40;26.50;99.90
8593;DHT22;4334;49.982;8.398;2023-07-24T11:55:09;26.80;99.70
8593;DHT22;4334;49.982;8.398;2023-07-24T11:57:36;27.30;99.20
8593;DHT22;4334;49.982;8.398;2023-07-24T12:00:04;27.30;98.80
8593;DHT22;4334;49.982;8.398;2023-07-24T12:02:32;27.20;98.50
8593;DHT22;4334;49.982;8.398;2023-07-24T12:04:59;27.10;98.40
8593;DHT22;4334;49.982;8.398;2023-07-24T12:07:32;27.30;98.50
8593;DHT22;4334;49.982;8.398;2023-07-24T12:10:01;27.10;98.40
8593;DHT22;4334;49.982;8.398;2023-07-24T12:12:39;27.40;99.20
8593;DHT22;4334;49.982;8.398;2023-07-24T12:15:07;27.80;98.50
8593;DHT22;4334;49.982;8.398;2023-07-24T12:17:35;27.80;98.10
8593;DHT22;4334;49.982;8.398;2023-07-24T12:20:02;27.30;98.30
8593;DHT22;4334;49.982;8.398;2023-07-24T12:22:31;27.10;98.30
8593;DHT22;4334;49.982;8.398;2023-07-24T12:24:58;26.80;98.70
8593;DHT22;4334;49.982;8.398;2023-07-24T12:27:26;27.10;98.70
8593;DHT22;4334;49.982;8.398;2023-07-24T12:29:53;27.60;98.30
8593;DHT22;4334;49.982;8.398;2023-07-24T12:32:19;29.70;97.60
8593;DHT22;4334;49.982;8.398;2023-07-24T12:34:49;28.90;96.60
8593;DHT22;4334;49.982;8.398;2023-07-24T12:37:16;29.80;94.80
8593;DHT22;4334;49.982;8.398;2023-07-24T12:39:44;29.60;94.50
8593;DHT22;4334;49.982;8.398;2023-07-24T12:42:11;29.40;94.70
8593;DHT22;4334;49.982;8.398;2023-07-24T12:44:39;29.60;94.90
8593;DHT22;4334;49.982;8.398;2023-07-24T12:47:06;29.40;94.50
8593;DHT22;4334;49.982;8.398;2023-07-24T12:49:33;28.70;95.00
8593;DHT22;4334;49.982;8.398;2023-07-24T12:52:00;28.10;95.90
8593;DHT22;4334;49.982;8.398;2023-07-24T12:54:26;27.80;96.70
8593;DHT22;4334;49.982;8.398;2023-07-24T12:56:53;27.40;97.20
8593;DHT22;4334;49.982;8.398;2023-07-24T12:59:20;27.10;97.70
8593;DHT22;4334;49.982;8.398;2023-07-24T13:01:48;27.10;98.20
8593;DHT22;4334;49.982;8.398;2023-07-24T13:04:15;27.20;98.20
8593;DHT22;4334;49.982;8.398;2023-07-24T13:06:42;27.10;98.30
8593;DHT22;4334;49.982;8.398;2023-07-24T13:09:08;27.00;98.80
8593;DHT22;4334;49.982;8.398;2023-07-24T13:11:35;27.00;99.30
8593;DHT22;4334;49.982;8.398;2023-07-24T13:14:02;26.80;99.60
8593;DHT22;4334;49.982;8.398;2023-07-24T13:16:29;26.80;99.80
8593;DHT22;4334;49.982;8.398;2023-07-24T13:18:57;26.70;99.90
8593;DHT22;4334;49.982;8.398;2023-07-24T13:21:24;26.60;99.90
8593;DHT22;4334;49.982;8.398;2023-07-24T13:23:50;26.50;99.90
8593;DHT22;4334;49.982;8.398;2023-07-24T13:26:18;26.70;99.90
8593;DHT22;4334;49.982;8.398;2023-07-24T13:28:44;27.70;99.80
8593;DHT22;4334;49.982;8.398;2023-07-24T13:31:12;27.90;99.90
8593;DHT22;4334;49.982;8.398;2023-07-24T13:33:39;27.30;99.90
8593;DHT22;4334;49.982;8.398;2023-07-24T13:36:08;26.90;99.90
8593;DHT22;4334;49.982;8.398;2023-07-24T13:38:35;26.70;99.90
8593;DHT22;4334;49.982;8.398;2023-07-24T13:41:02;25.30;99.90
8593;DHT22;4334;49.982;8.398;2023-07-24T13:43:30;24.40;99.90
8593;DHT22;4334;49.982;8.398;2023-07-24T13:45:57;23.20;99.90
8593;DHT22;4334;49.982;8.398;2023-07-24T13:48:24;22.40;99.90
8593;DHT22;4334;49.982;8.398;2023-07-24T13:50:51;22.60;99.90
8593;DHT22;4334;49.982;8.398;2023-07-24T13:53:20;22.60;99.90
8593;DHT22;4334;49.982;8.398;2023-07-24T13:55:47;22.80;99.90
8593;DHT22;4334;49.982;8.398;2023-07-24T13:58:13;23.10;99.90
8593;DHT22;4334;49.982;8.398;2023-07-24T14:00:40;23.10;99.90
8593;DHT22;4334;49.982;8.398;2023-07-24T14:03:07;23.50;99.90
8593;DHT22;4334;49.982;8.398;2023-07-24T14:05:34;23.80;99.90
8593;DHT22;4334;49.982;8.398;2023-07-24T14:08:02;24.40;99.90
8593;DHT22;4334;49.982;8.398;2023-07-24T14:10:30;24.80;99.90
8593;DHT22;4334;49.982;8.398;2023-07-24T14:12:57;25.30;99.90
8593;DHT22;4334;49.982;8.398;2023-07-24T14:15:24;25.60;99.90
8593;DHT22;4334;49.982;8.398;2023-07-24T14:17:51;26.20;99.90
8593;DHT22;4334;49.982;8.398;2023-07-24T14:20:17;26.50;99.90
8593;DHT22;4334;49.982;8.398;2023-07-24T14:22:44;26.90;99.90
8593;DHT22;4334;49.982;8.398;2023-07-24T14:25:11;27.80;99.90
8593;DHT22;4334;49.982;8.398;2023-07-24T14:27:39;28.20;99.90
8593;DHT22;4334;49.982;8.398;2023-07-24T14:30:08;28.10;99.90
8593;DHT22;4334;49.982;8.398;2023-07-24T14:32:35;28.20;99.90
8593;DHT22;4334;49.982;8.398;2023-07-24T14:35:02;28.50;99.90
8593;DHT22;4334;49.982;8.398;2023-07-24T14:37:29;27.90;99.90
8593;DHT22;4334;49.982;8.398;2023-07-24T14:39:56;27.90;99.90
8593;DHT22;4334;49.982;8.398;2023-07-24T14:42:23;28.40;99.90
8593;DHT22;4334;49.982;8.398;2023-07-24T14:44:51;28.60;99.90
8593;DHT22;4334;49.982;8.398;2023-07-24T14:47:17;29.00;99.90
8593;DHT22;4334;49.982;8.398;2023-07-24T14:49:44;29.30;99.90
8593;DHT22;4334;49.982;8.398;2023-07-24T14:52:11;29.20;99.90
8593;DHT22;4334;49.982;8.398;2023-07-24T14:54:37;29.00;99.90
8593;DHT22;4334;49.982;8.398;2023-07-24T14:57:05;28.70;99.90
8593;DHT22;4334;49.982;8.398;2023-07-24T14:59:32;28.90;99.90
8593;DHT22;4334;49.982;8.398;2023-07-24T15:02:00;28.70;99.90
8593;DHT22;4334;49.982;8.398;2023-07-24T15:04:27;27.40;99.90
8593;DHT22;4334;49.982;8.398;2023-07-24T15:06:53;26.50;99.90
8593;DHT22;4334;49.982;8.398;2023-07-24T15:09:20;25.80;99.90
8593;DHT22;4334;49.982;8.398;2023-07-24T15:11:47;25.20;99.90
8593;DHT22;4334;49.982;8.398;2023-07-24T15:14:14;24.80;99.90
8593;DHT22;4334;49.982;8.398;2023-07-24T15:16:41;24.10;99.90
8593;DHT22;4334;49.982;8.398;2023-07-24T15:19:09;22.70;99.90
8593;DHT22;4334;49.982;8.398;2023-07-24T15:21:36;21.60;99.90
8593;DHT22;4334;49.982;8.398;2023-07-24T15:24:03;19.20;99.90
8593;DHT22;4334;49.982;8.398;2023-07-24T15:26:30;19.20;99.90
8593;DHT22;4334;49.982;8.398;2023-07-24T15:28:56;19.10;99.90
8593;DHT22;4334;49.982;8.398;2023-07-24T15:31:23;19.10;99.90
8593;DHT22;4334;49.982;8.398;2023-07-24T15:33:50;19.50;99.90
8593;DHT22;4334;49.982;8.398;2023-07-24T15:36:18;20.30;99.90
8593;DHT22;4334;49.982;8.398;2023-07-24T15:38:45;20.40;99.90
8593;DHT22;4334;49.982;8.398;2023-07-24T15:41:12;20.70;99.90
8593;DHT22;4334;49.982;8.398;2023-07-24T15:43:39;20.90;99.90
8593;DHT22;4334;49.982;8.398;2023-07-24T15:46:05;21.40;99.90
8593;DHT22;4334;49.982;8.398;2023-07-24T15:48:32;21.80;99.90
8593;DHT22;4334;49.982;8.398;2023-07-24T15:50:59;22.30;99.90
8593;DHT22;4334;49.982;8.398;2023-07-24T15:53:27;22.50;99.90
8593;DHT22;4334;49.982;8.398;2023-07-24T15:55:54;22.90;99.90
8593;DHT22;4334;49.982;8.398;2023-07-24T15:58:21;23.00;99.90
8593;DHT22;4334;49.982;8.398;2023-07-24T16:00:47;23.20;99.90
8593;DHT22;4334;49.982;8.398;2023-07-24T16:03:14;22.90;99.90